createdAt,value
2022-08-22T00:01:19.757Z,19.60
2022-08-22T00:02:53.912Z,20.62
2022-08-22T00:03:41.066Z,19.58
2022-08-22T00:05:58.117Z,19.50
2022-08-22T00:08:15.104Z,19.49
2022-08-22T00:10:32.408Z,19.45
2022-08-22T00:12:49.743Z,19.38
2022-08-22T00:15:08.186Z,19.34
2022-08-22T00:17:33.847Z,19.27
2022-08-22T00:19:50.987Z,19.24
2022-08-22T00:22:08.113Z,19.20
2022-08-22T00:24:25.194Z,19.14
2022-08-22T00:26:45.473Z,19.08
2022-08-22T00:29:02.871Z,19.05
2022-08-22T00:31:20.125Z,18.94
2022-08-22T00:33:37.172Z,18.89
2022-08-22T00:35:54.140Z,18.84
2022-08-22T00:38:12.261Z,18.80
2022-08-22T00:40:30.359Z,18.74
2022-08-22T00:42:47.335Z,18.64
2022-08-22T00:45:04.751Z,18.61
2022-08-22T00:47:22.116Z,18.59
2022-08-22T00:49:39.804Z,18.53
2022-08-22T00:51:56.942Z,18.49
2022-08-22T00:54:17.716Z,18.46
2022-08-22T00:56:35.446Z,18.41
2022-08-22T00:58:52.578Z,18.37
2022-08-22T01:01:11.051Z,18.31
2022-08-22T01:03:28.137Z,18.22
2022-08-22T01:05:45.130Z,18.14
2022-08-22T01:08:02.566Z,18.11
2022-08-22T01:10:19.638Z,18.06
2022-08-22T01:12:36.650Z,18.03
2022-08-22T01:14:54.000Z,18.00
2022-08-22T01:17:10.939Z,17.96
2022-08-22T01:19:28.908Z,17.89
2022-08-22T01:21:46.228Z,17.88
2022-08-22T01:24:03.417Z,17.83
2022-08-22T01:26:23.297Z,17.79
2022-08-22T01:28:43.519Z,17.79
2022-08-22T01:31:00.800Z,17.77
2022-08-22T01:33:18.481Z,17.76
2022-08-22T01:35:36.473Z,17.73
2022-08-22T01:37:53.794Z,17.72
2022-08-22T01:40:10.882Z,17.70
2022-08-22T01:42:29.213Z,17.66
2022-08-22T01:44:46.168Z,17.60
2022-08-22T01:47:03.419Z,17.58
2022-08-22T01:49:20.377Z,17.55
2022-08-22T01:51:38.585Z,17.54
2022-08-22T01:53:56.679Z,17.53
2022-08-22T01:56:13.649Z,17.52
2022-08-22T01:58:30.678Z,17.50
2022-08-22T02:00:48.841Z,17.48
2022-08-22T02:03:06.156Z,17.42
2022-08-22T02:05:23.454Z,17.36
2022-08-22T02:07:40.542Z,17.32
2022-08-22T02:09:57.552Z,17.25
2022-08-22T02:12:21.868Z,17.26
2022-08-22T02:14:39.491Z,17.26
2022-08-22T02:16:56.434Z,17.10
2022-08-22T02:19:13.893Z,17.11
2022-08-22T02:21:31.221Z,17.05
2022-08-22T02:23:48.290Z,16.99
2022-08-22T02:26:05.576Z,16.93
2022-08-22T02:28:23.725Z,16.89
2022-08-22T02:30:41.048Z,16.88
2022-08-22T02:32:57.984Z,16.81
2022-08-22T02:35:15.069Z,16.79
2022-08-22T02:37:32.163Z,16.74
2022-08-22T02:39:52.461Z,16.69
2022-08-22T02:42:10.485Z,16.62
2022-08-22T02:44:27.566Z,16.56
2022-08-22T02:46:45.643Z,16.50
2022-08-22T02:49:02.756Z,16.41
2022-08-22T02:51:20.371Z,16.39
2022-08-22T02:53:37.451Z,16.39
2022-08-22T02:55:54.503Z,16.36
2022-08-22T02:58:11.773Z,16.31
2022-08-22T03:00:32.770Z,16.24
2022-08-22T03:02:50.208Z,16.24
2022-08-22T03:05:07.279Z,16.20
2022-08-22T03:07:26.218Z,16.23
2022-08-22T03:09:43.291Z,16.14
2022-08-22T03:12:00.653Z,16.03
2022-08-22T03:14:18.725Z,15.99
2022-08-22T03:16:35.755Z,15.96
2022-08-22T03:18:53.776Z,15.89
2022-08-22T03:21:10.862Z,15.83
2022-08-22T03:23:28.221Z,15.82
2022-08-22T03:25:45.512Z,15.76
2022-08-22T03:28:02.863Z,15.76
2022-08-22T03:30:22.737Z,15.73
2022-08-22T03:32:40.064Z,15.73
2022-08-22T03:34:57.449Z,15.69
2022-08-22T03:37:14.834Z,15.64
2022-08-22T03:39:31.908Z,15.60
2022-08-22T03:41:48.953Z,15.53
2022-08-22T03:44:07.245Z,15.45
2022-08-22T03:46:24.356Z,15.40
2022-08-22T03:48:42.300Z,15.39
2022-08-22T03:50:59.304Z,15.35
2022-08-22T03:53:19.282Z,15.32
2022-08-22T03:55:36.701Z,15.30
2022-08-22T03:57:55.267Z,15.23
2022-08-22T04:00:12.669Z,15.20
2022-08-22T04:02:43.287Z,15.22
2022-08-22T04:05:01.516Z,15.18
2022-08-22T04:07:28.304Z,15.13
2022-08-22T04:09:49.315Z,15.06
2022-08-22T04:12:07.963Z,14.99
2022-08-22T04:14:25.036Z,14.96
2022-08-22T04:16:42.457Z,14.93
2022-08-22T04:18:59.745Z,14.91
2022-08-22T04:21:19.173Z,14.85
2022-08-22T04:23:37.142Z,14.80
2022-08-22T04:25:58.451Z,14.77
2022-08-22T04:28:16.680Z,14.76
2022-08-22T04:30:34.177Z,14.71
2022-08-22T04:32:51.504Z,14.67
2022-08-22T04:35:08.879Z,14.65
2022-08-22T04:37:27.701Z,14.64
2022-08-22T04:39:45.085Z,14.58
2022-08-22T04:42:16.339Z,14.56
2022-08-22T04:44:40.208Z,14.54
2022-08-22T04:46:57.245Z,14.54
2022-08-22T04:49:14.367Z,14.51
2022-08-22T04:51:31.417Z,14.50
2022-08-22T04:53:49.657Z,14.48
2022-08-22T04:56:07.608Z,14.48
2022-08-22T04:58:25.950Z,14.45
2022-08-22T05:00:43.061Z,14.46
2022-08-22T05:03:00.168Z,14.45
2022-08-22T05:05:17.514Z,14.45
2022-08-22T05:07:36.125Z,14.46
2022-08-22T05:09:53.278Z,14.46
2022-08-22T05:12:11.690Z,14.46
2022-08-22T05:14:29.784Z,14.49
2022-08-22T05:16:47.229Z,14.51
2022-08-22T05:19:05.522Z,14.47
2022-08-22T05:21:22.629Z,14.47
2022-08-22T05:23:45.211Z,14.50
2022-08-22T05:26:02.333Z,14.50
2022-08-22T05:28:19.435Z,14.51
2022-08-22T05:30:36.399Z,14.51
2022-08-22T05:32:53.741Z,14.49
2022-08-22T05:35:12.069Z,14.54
2022-08-22T05:37:29.153Z,14.56
2022-08-22T05:39:47.531Z,14.56
2022-08-22T05:42:04.718Z,14.60
2022-08-22T05:44:21.744Z,14.57
2022-08-22T05:46:38.683Z,14.59
2022-08-22T05:48:57.031Z,14.60
2022-08-22T05:51:13.972Z,14.65
2022-08-22T05:53:30.892Z,14.70
2022-08-22T05:55:49.146Z,14.72
2022-08-22T05:58:06.268Z,14.84
2022-08-22T06:00:23.503Z,14.87
2022-08-22T06:02:40.755Z,14.82
2022-08-22T06:04:58.021Z,14.77
2022-08-22T06:07:15.165Z,14.74
2022-08-22T06:09:35.640Z,14.76
2022-08-22T06:11:52.913Z,14.82
2022-08-22T06:14:10.234Z,14.93
2022-08-22T06:16:29.984Z,15.07
2022-08-22T06:18:47.295Z,15.24
2022-08-22T06:21:04.303Z,15.42
2022-08-22T06:23:21.224Z,15.62
2022-08-22T06:25:38.568Z,15.82
2022-08-22T06:27:55.739Z,15.98
2022-08-22T06:30:13.049Z,16.16
2022-08-22T06:32:58.447Z,16.33
2022-08-22T06:35:07.334Z,16.51
2022-08-22T06:37:24.640Z,16.64
2022-08-22T06:39:42.678Z,16.75
2022-08-22T06:41:59.760Z,16.88
2022-08-22T06:44:17.070Z,16.98
2022-08-22T06:46:34.312Z,17.10
2022-08-22T06:48:51.368Z,17.21
2022-08-22T06:51:08.405Z,17.32
2022-08-22T06:53:25.306Z,17.42
2022-08-22T06:55:42.664Z,17.51
2022-08-22T06:57:59.856Z,17.64
2022-08-22T07:00:16.904Z,17.73
2022-08-22T07:02:33.853Z,17.86
2022-08-22T07:04:51.088Z,17.97
2022-08-22T07:07:08.177Z,18.09
2022-08-22T07:09:25.247Z,18.22
2022-08-22T07:11:42.546Z,18.37
2022-08-22T07:13:59.813Z,18.49
2022-08-22T07:16:17.053Z,18.64
2022-08-22T07:18:34.078Z,18.79
2022-08-22T07:20:51.429Z,18.94
2022-08-22T07:23:12.066Z,19.09
2022-08-22T07:25:29.458Z,19.24
2022-08-22T07:27:48.761Z,19.38
2022-08-22T07:30:06.596Z,19.52
2022-08-22T07:32:27.707Z,19.66
2022-08-22T07:34:45.924Z,19.85
2022-08-22T07:37:02.894Z,19.99
2022-08-22T07:39:20.088Z,20.15
2022-08-22T07:41:38.796Z,20.32
2022-08-22T07:43:56.075Z,20.48
2022-08-22T07:46:13.311Z,20.69
2022-08-22T07:48:30.359Z,20.90
2022-08-22T07:50:47.431Z,21.10
2022-08-22T07:53:04.664Z,21.30
2022-08-22T07:55:21.625Z,21.48
2022-08-22T07:57:38.686Z,21.70
2022-08-22T07:59:55.734Z,21.88
2022-08-22T08:02:13.100Z,22.07
2022-08-22T08:04:30.357Z,22.26
2022-08-22T08:06:47.405Z,22.42
2022-08-22T08:09:04.737Z,22.52
2022-08-22T08:11:21.987Z,22.68
2022-08-22T08:13:38.976Z,22.79
2022-08-22T08:15:56.247Z,22.95
2022-08-22T08:18:13.164Z,23.10
2022-08-22T08:20:30.503Z,23.16
2022-08-22T08:22:48.509Z,23.31
2022-08-22T08:25:05.469Z,23.44
2022-08-22T08:27:22.428Z,23.53
2022-08-22T08:29:39.704Z,23.69
2022-08-22T08:31:56.738Z,23.82
2022-08-22T08:34:13.668Z,23.96
2022-08-22T08:36:30.738Z,24.11
2022-08-22T08:38:48.675Z,24.21
2022-08-22T08:41:05.968Z,24.32
2022-08-22T08:43:23.150Z,24.41
2022-08-22T08:45:40.264Z,24.60
2022-08-22T08:47:57.310Z,24.74
2022-08-22T08:50:14.413Z,24.69
2022-08-22T08:52:32.227Z,24.82
2022-08-22T08:54:49.345Z,25.04
2022-08-22T08:57:07.907Z,25.12
2022-08-22T08:59:26.129Z,25.23
2022-08-22T09:01:44.606Z,25.36
2022-08-22T09:04:02.161Z,25.56
2022-08-22T09:06:21.261Z,25.72
2022-08-22T09:08:38.514Z,25.79
2022-08-22T09:10:56.555Z,25.84
2022-08-22T09:13:14.162Z,25.88
2022-08-22T09:15:37.274Z,25.89
2022-08-22T09:17:56.080Z,25.91
2022-08-22T09:20:15.489Z,26.21
2022-08-22T09:22:49.905Z,26.32
2022-08-22T09:25:07.964Z,26.50
2022-08-22T09:27:25.321Z,26.47
2022-08-22T09:29:54.941Z,26.50
2022-08-22T09:32:16.937Z,26.53
2022-08-22T09:34:36.303Z,26.41
2022-08-22T09:36:53.776Z,26.39
2022-08-22T09:39:13.065Z,26.52
2022-08-22T09:41:32.134Z,26.74
2022-08-22T09:43:50.901Z,26.95
2022-08-22T09:46:09.803Z,27.03
2022-08-22T09:48:27.105Z,27.35
2022-08-22T09:50:44.072Z,27.42
2022-08-22T09:53:03.274Z,27.56
2022-08-22T09:55:35.382Z,27.59
2022-08-22T09:57:55.834Z,27.78
2022-08-22T10:00:12.885Z,27.92
2022-08-22T10:02:31.571Z,27.84
2022-08-22T10:04:51.312Z,27.76
2022-08-22T10:07:11.953Z,27.81
2022-08-22T10:09:31.504Z,28.07
2022-08-22T10:11:50.535Z,28.14
2022-08-22T10:14:07.829Z,28.17
2022-08-22T10:16:25.125Z,28.31
2022-08-22T10:18:52.678Z,28.21
2022-08-22T10:21:11.074Z,28.14
2022-08-22T10:23:28.142Z,28.19
2022-08-22T10:25:45.280Z,28.28
2022-08-22T10:28:03.711Z,28.55
2022-08-22T10:30:21.499Z,28.90
2022-08-22T10:32:38.789Z,29.05
2022-08-22T10:34:57.348Z,29.14
2022-08-22T10:37:14.493Z,29.19
2022-08-22T10:39:32.492Z,29.46
2022-08-22T10:41:50.132Z,29.68
2022-08-22T10:44:07.834Z,29.34
2022-08-22T10:46:27.790Z,29.36
2022-08-22T10:48:45.951Z,29.57
2022-08-22T10:51:08.852Z,29.72
2022-08-22T10:53:29.725Z,29.84
2022-08-22T10:55:46.783Z,30.03
2022-08-22T10:58:03.989Z,30.22
2022-08-22T11:00:22.414Z,30.41
2022-08-22T11:02:42.384Z,30.31
2022-08-22T11:05:01.860Z,30.55
2022-08-22T11:07:21.398Z,30.72
2022-08-22T11:09:40.260Z,30.88
2022-08-22T11:12:00.217Z,30.69
2022-08-22T11:14:17.359Z,30.20
2022-08-22T11:16:36.814Z,30.11
2022-08-22T11:19:04.878Z,30.15
2022-08-22T11:21:33.686Z,30.42
2022-08-22T11:23:51.000Z,30.63
2022-08-22T11:26:08.280Z,30.89
2022-08-22T11:28:28.810Z,31.18
2022-08-22T11:30:46.761Z,31.28
2022-08-22T11:33:07.382Z,31.45
2022-08-22T11:35:26.488Z,31.38
2022-08-22T11:37:44.459Z,31.17
2022-08-22T11:40:01.876Z,31.23
2022-08-22T11:42:21.784Z,31.28
2022-08-22T11:44:50.645Z,30.82
2022-08-22T11:47:08.107Z,30.63
2022-08-22T11:49:27.238Z,30.83
2022-08-22T11:51:44.724Z,30.45
2022-08-22T11:54:01.863Z,30.31
2022-08-22T11:56:19.135Z,30.36
2022-08-22T11:58:36.570Z,30.52
2022-08-22T12:00:53.649Z,30.73
2022-08-22T12:03:10.983Z,30.70
2022-08-22T12:05:27.955Z,30.54
2022-08-22T12:07:50.481Z,30.52
2022-08-22T12:10:07.656Z,30.72
2022-08-22T12:12:30.847Z,31.12
2022-08-22T12:14:48.926Z,31.11
2022-08-22T12:17:06.204Z,31.42
2022-08-22T12:19:27.223Z,31.77
2022-08-22T12:21:50.065Z,32.12
2022-08-22T12:24:11.337Z,32.12
2022-08-22T12:26:36.490Z,32.24
2022-08-22T12:28:57.952Z,32.15
2022-08-22T12:31:15.869Z,32.04
2022-08-22T12:33:33.051Z,32.17
2022-08-22T12:35:50.486Z,32.20
2022-08-22T12:38:26.635Z,32.28
2022-08-22T12:40:46.810Z,32.11
2022-08-22T12:43:04.304Z,32.02
2022-08-22T12:45:23.602Z,32.36
2022-08-22T12:47:42.304Z,32.31
2022-08-22T12:50:00.859Z,32.09
2022-08-22T12:52:18.104Z,31.55
2022-08-22T12:54:35.170Z,31.01
2022-08-22T12:56:52.226Z,30.71
2022-08-22T12:59:09.174Z,30.28
2022-08-22T13:01:34.194Z,29.96
2022-08-22T13:03:52.031Z,29.89
2022-08-22T13:06:13.663Z,29.79
2022-08-22T13:08:32.175Z,29.56
2022-08-22T13:10:49.491Z,29.46
2022-08-22T13:13:12.272Z,29.41
2022-08-22T13:15:29.729Z,29.30
2022-08-22T13:17:47.032Z,29.47
2022-08-22T13:20:03.976Z,29.77
2022-08-22T13:22:22.686Z,30.38
2022-08-22T13:24:52.426Z,30.97
2022-08-22T13:27:10.098Z,31.03
2022-08-22T13:29:39.103Z,30.82
2022-08-22T13:31:59.492Z,30.50
2022-08-22T13:34:16.464Z,30.75
2022-08-22T13:36:40.000Z,31.06
2022-08-22T13:38:57.038Z,31.29
2022-08-22T13:41:14.521Z,31.64
2022-08-22T13:43:31.838Z,31.74
2022-08-22T13:45:49.443Z,31.91
2022-08-22T13:48:08.997Z,32.06
2022-08-22T13:50:28.461Z,32.20
2022-08-22T13:52:55.186Z,32.16
2022-08-22T13:55:13.644Z,31.78
2022-08-22T13:57:31.038Z,31.39
2022-08-22T13:59:51.534Z,31.06
2022-08-22T14:02:09.931Z,31.15
2022-08-22T14:04:36.413Z,31.18
2022-08-22T14:06:53.969Z,31.29
2022-08-22T14:09:12.904Z,31.48
2022-08-22T14:11:32.062Z,31.59
2022-08-22T14:13:49.376Z,31.71
2022-08-22T14:16:06.657Z,31.70
2022-08-22T14:18:30.086Z,31.40
2022-08-22T14:20:48.794Z,31.15
2022-08-22T14:23:06.466Z,30.92
2022-08-22T14:25:23.519Z,30.59
2022-08-22T14:27:42.216Z,30.33
2022-08-22T14:29:59.283Z,29.96
2022-08-22T14:32:16.783Z,29.83
2022-08-22T14:34:39.807Z,29.69
2022-08-22T14:36:57.064Z,29.48
2022-08-22T14:39:14.494Z,29.52
2022-08-22T14:41:52.588Z,29.44
2022-08-22T14:44:13.795Z,29.65
2022-08-22T14:46:31.161Z,29.79
2022-08-22T14:48:48.120Z,29.67
2022-08-22T14:51:05.095Z,29.65
2022-08-22T14:53:25.065Z,29.65
2022-08-22T14:55:42.330Z,29.56
2022-08-22T14:58:00.536Z,29.48
2022-08-22T15:00:20.904Z,29.66
2022-08-22T15:02:38.234Z,30.02
2022-08-22T15:04:55.568Z,30.46
2022-08-22T15:07:12.549Z,30.75
2022-08-22T15:09:29.739Z,30.84
2022-08-22T15:11:48.240Z,30.57
2022-08-22T15:14:06.495Z,30.35
2022-08-22T15:16:23.830Z,30.06
2022-08-22T15:18:51.817Z,29.94
2022-08-22T15:21:12.838Z,29.74
2022-08-22T15:23:30.907Z,29.72
2022-08-22T15:25:48.010Z,29.78
2022-08-22T15:28:14.277Z,29.80
2022-08-22T15:30:34.355Z,29.66
2022-08-22T15:32:51.637Z,29.53
2022-08-22T15:35:09.921Z,29.45
2022-08-22T15:37:27.600Z,29.57
2022-08-22T15:39:47.462Z,29.96
2022-08-22T15:42:04.513Z,30.09
2022-08-22T15:44:33.075Z,30.23
2022-08-22T15:46:51.541Z,30.48
2022-08-22T15:49:11.046Z,30.56
2022-08-22T15:51:28.192Z,30.41
2022-08-22T15:53:45.143Z,30.45
2022-08-22T15:56:05.110Z,30.62
2022-08-22T15:58:22.421Z,30.77
2022-08-22T16:00:43.827Z,30.92
2022-08-22T16:03:02.583Z,31.01
2022-08-22T16:05:19.558Z,31.12
2022-08-22T16:07:36.920Z,31.16
2022-08-22T16:09:54.016Z,31.02
2022-08-22T16:12:11.082Z,30.95
2022-08-22T16:14:29.604Z,30.72
2022-08-22T16:16:46.722Z,30.72
2022-08-22T16:19:05.046Z,30.60
2022-08-22T16:21:22.001Z,30.36
2022-08-22T16:23:39.060Z,30.22
2022-08-22T16:25:56.094Z,29.96
2022-08-22T16:28:14.484Z,29.86
2022-08-22T16:30:32.531Z,29.66
2022-08-22T16:32:49.630Z,29.40
2022-08-22T16:35:06.622Z,29.26
2022-08-22T16:37:23.590Z,29.14
2022-08-22T16:39:41.707Z,29.06
2022-08-22T16:41:58.756Z,28.94
2022-08-22T16:44:16.115Z,28.87
2022-08-22T16:46:36.624Z,28.81
2022-08-22T16:48:53.807Z,28.73
2022-08-22T16:51:11.260Z,28.66
2022-08-22T16:53:29.248Z,28.60
2022-08-22T16:55:46.424Z,28.61
2022-08-22T16:58:07.048Z,28.54
2022-08-22T17:00:24.317Z,28.47
2022-08-22T17:02:41.307Z,28.49
2022-08-22T17:04:58.284Z,28.40
2022-08-22T17:07:15.362Z,28.34
2022-08-22T17:09:32.460Z,28.28
2022-08-22T17:11:52.150Z,28.20
2022-08-22T17:14:09.275Z,28.12
2022-08-22T17:16:26.319Z,28.00
2022-08-22T17:18:43.568Z,27.92
2022-08-22T17:21:00.608Z,27.81
2022-08-22T17:23:17.604Z,27.74
2022-08-22T17:25:34.609Z,27.69
2022-08-22T17:27:51.652Z,27.55
2022-08-22T17:30:09.287Z,27.46
2022-08-22T17:32:26.640Z,27.38
2022-08-22T17:34:43.721Z,27.30
2022-08-22T17:37:00.640Z,27.21
2022-08-22T17:39:18.726Z,27.14
2022-08-22T17:41:36.096Z,27.08
2022-08-22T17:43:54.465Z,27.06
2022-08-22T17:46:13.314Z,27.00
2022-08-22T17:48:30.447Z,26.95
2022-08-22T17:50:49.517Z,26.88
2022-08-22T17:53:07.647Z,26.81
2022-08-22T17:55:24.797Z,26.79
2022-08-22T17:57:41.716Z,26.68
2022-08-22T17:59:58.713Z,26.46
2022-08-22T18:02:15.960Z,26.35
2022-08-22T18:04:35.150Z,26.21
2022-08-22T18:06:55.503Z,26.13
2022-08-22T18:09:14.083Z,25.97
2022-08-22T18:11:38.870Z,25.81
2022-08-22T18:13:57.806Z,25.69
2022-08-22T18:16:15.906Z,25.59
2022-08-22T18:18:33.168Z,25.51
2022-08-22T18:20:50.315Z,25.39
2022-08-22T18:23:07.266Z,25.28
2022-08-22T18:25:38.787Z,25.16
2022-08-22T18:27:56.001Z,25.04
2022-08-22T18:30:13.026Z,24.95
2022-08-22T18:32:31.351Z,24.84
2022-08-22T18:34:50.443Z,24.74
2022-08-22T18:37:07.486Z,24.64
2022-08-22T18:39:24.540Z,24.56
2022-08-22T18:41:42.694Z,24.49
2022-08-22T18:43:59.769Z,24.42
2022-08-22T18:46:17.719Z,24.38
2022-08-22T18:48:35.797Z,24.29
2022-08-22T18:50:52.974Z,24.24
2022-08-22T18:53:10.231Z,24.16
2022-08-22T18:55:27.240Z,24.12
2022-08-22T18:57:44.209Z,24.02
2022-08-22T19:00:01.252Z,23.94
2022-08-22T19:02:18.568Z,23.87
2022-08-22T19:04:35.751Z,23.80
2022-08-22T19:06:53.757Z,23.72
2022-08-22T19:09:10.780Z,23.65
2022-08-22T19:11:28.088Z,23.59
2022-08-22T19:13:45.135Z,23.57
2022-08-22T19:16:03.032Z,23.51
2022-08-22T19:18:20.191Z,23.45
2022-08-22T19:20:37.213Z,23.36
2022-08-22T19:22:54.306Z,23.34
2022-08-22T19:25:11.394Z,23.26
2022-08-22T19:27:31.411Z,23.18
2022-08-22T19:29:48.705Z,23.15
2022-08-22T19:32:11.850Z,23.06
2022-08-22T19:34:30.623Z,22.95
2022-08-22T19:36:48.611Z,22.95
2022-08-22T19:39:08.899Z,22.93
2022-08-22T19:41:26.719Z,22.86
2022-08-22T19:43:43.875Z,22.84
2022-08-22T19:46:01.857Z,22.75
2022-08-22T19:48:18.866Z,22.66
2022-08-22T19:50:36.161Z,22.63
2022-08-22T19:52:53.412Z,22.57
2022-08-22T19:55:10.382Z,22.45
2022-08-22T19:57:28.658Z,22.46
2022-08-22T19:59:50.737Z,22.44
2022-08-22T20:02:08.809Z,22.30
2022-08-22T20:04:29.493Z,22.22
2022-08-22T20:06:48.828Z,22.15
2022-08-22T20:09:06.132Z,21.99
2022-08-22T20:11:23.167Z,21.90
2022-08-22T20:13:40.198Z,21.97
2022-08-22T20:15:57.185Z,21.85
2022-08-22T20:20:51.778Z,21.68
2022-08-22T20:23:10.090Z,21.59
2022-08-22T20:25:42.147Z,21.50
2022-08-22T20:28:00.805Z,21.41
2022-08-22T20:30:19.277Z,21.31
2022-08-22T20:32:38.893Z,21.25
2022-08-22T20:34:56.167Z,21.09
2022-08-22T20:37:45.418Z,21.04
2022-08-22T20:39:58.440Z,20.97
2022-08-22T20:42:15.953Z,20.89
2022-08-22T20:44:33.353Z,20.83
2022-08-22T20:46:53.437Z,20.72
2022-08-22T20:49:12.407Z,20.69
2022-08-22T20:51:29.933Z,20.60
2022-08-22T20:53:47.249Z,20.53
2022-08-22T20:56:07.063Z,20.51
2022-08-22T20:58:24.387Z,20.43
2022-08-22T21:00:41.479Z,20.40
2022-08-22T21:02:58.584Z,20.36
2022-08-22T21:05:17.045Z,20.30
2022-08-22T21:07:33.989Z,20.26
2022-08-22T21:09:50.997Z,20.14
2022-08-22T21:12:08.000Z,20.03
2022-08-22T21:14:25.051Z,19.94
2022-08-22T21:16:42.126Z,19.88
2022-08-22T21:18:59.167Z,19.81
2022-08-22T21:21:17.833Z,19.75
2022-08-22T21:23:36.001Z,19.67
2022-08-22T21:25:53.258Z,19.60
2022-08-22T21:28:10.298Z,19.53
2022-08-22T21:30:27.311Z,19.46
2022-08-22T21:32:45.140Z,19.38
2022-08-22T21:35:02.427Z,19.34
2022-08-22T21:37:19.708Z,19.29
2022-08-22T21:39:36.833Z,19.22
2022-08-22T21:41:54.074Z,19.15
2022-08-22T21:44:11.418Z,19.06
2022-08-22T21:46:28.402Z,19.03
2022-08-22T21:48:46.387Z,18.97
2022-08-22T21:51:03.497Z,18.92
2022-08-22T21:53:20.504Z,18.90
2022-08-22T21:55:37.441Z,18.85
2022-08-22T21:57:54.521Z,18.86
2022-08-22T22:00:12.635Z,18.80
2022-08-22T22:02:29.888Z,18.71
2022-08-22T22:04:48.430Z,18.64
2022-08-22T22:07:07.875Z,18.55
2022-08-22T22:09:24.944Z,18.52
2022-08-22T22:11:43.003Z,18.50
2022-08-22T22:13:59.997Z,18.44
2022-08-22T22:16:17.983Z,18.41
2022-08-22T22:18:35.092Z,18.38
2022-08-22T22:20:52.100Z,18.34
2022-08-22T22:23:09.430Z,18.25
2022-08-22T22:25:40.759Z,18.19
2022-08-22T22:27:59.365Z,18.16
2022-08-22T22:30:16.505Z,18.12
2022-08-22T22:32:33.693Z,18.07
2022-08-22T22:34:50.787Z,18.02
2022-08-22T22:37:08.114Z,17.97
2022-08-22T22:39:25.077Z,17.89
2022-08-22T22:41:43.212Z,17.87
2022-08-22T22:44:00.445Z,17.80
2022-08-22T22:46:17.799Z,17.75
2022-08-22T22:48:34.834Z,17.70
2022-08-22T22:50:53.245Z,17.62
2022-08-22T22:53:11.499Z,17.60
2022-08-22T22:55:36.592Z,17.54
2022-08-22T22:57:59.558Z,17.48
2022-08-22T23:00:18.084Z,17.51
2022-08-22T23:02:35.679Z,17.41
2022-08-22T23:04:53.731Z,17.34
2022-08-22T23:07:11.119Z,17.30
2022-08-22T23:09:38.690Z,17.26
2022-08-22T23:12:02.056Z,17.25
2022-08-22T23:14:19.120Z,17.17
2022-08-22T23:16:37.450Z,17.08
2022-08-22T23:18:54.792Z,17.06
2022-08-22T23:21:11.861Z,17.04
2022-08-22T23:23:31.653Z,17.01
2022-08-22T23:25:50.043Z,16.96
2022-08-22T23:28:07.402Z,16.97
2022-08-22T23:30:25.098Z,16.91
2022-08-22T23:32:42.017Z,16.89
2022-08-22T23:34:59.079Z,16.85
2022-08-22T23:37:16.200Z,16.79
2022-08-22T23:39:33.125Z,16.75
2022-08-22T23:41:50.147Z,16.72
2022-08-22T23:44:08.187Z,16.69
2022-08-22T23:46:31.219Z,16.64
2022-08-22T23:48:48.722Z,16.59
2022-08-22T23:51:05.639Z,16.53
2022-08-22T23:53:22.939Z,16.49
2022-08-22T23:55:40.073Z,16.47
2022-08-22T23:57:58.118Z,16.45
